Birch Island, Canada
Current Conditions -  °F | °C
As of 6:51 AM on Thursday 27 Nov 2014 (Local Time) from CYZE Reporting Station
Light Snow Light Snow  
Wind Chill: 15°   Ceiling: 1100
Heat Index: 23°   Visibility: 9mi
Dew Point: 21°   Wind: 7mph
Humidity: 93%   Direction: 70°ENE
Pressure: 30.1"   Gusts: NA
Location:  46.05°N, 81.78°W
Report Text: CYZE 271151Z AUTO 07006KT 9SM -SN BKN011 OVC045 M05/M06 A3010 RMK ICG PAST HR SLP203
Loading
Personal Weather Stations






























Interactive Weather Map New forecast layout! Learn more

10-Day Weather Forecast

Advertisements
Track Severe Weather on mobile